N311UM SCTB-SCCH
Flight info
| Callsign | N311UM |
|---|---|
| Flight time | 0h 53m |
| Altitude | 23000 |
| Route | PARKE8 AMB V551 ASETI ASETI2B |
| Aircraft | SF50/L-BDGRSWY/LB2U2 |
Departure
| Time | 2026-04-21 04:05 |
|---|---|
| Airport | Eulogio Sánchez Airport (SCTB) |
Arrival
| Time | 2026-04-21 04:58 |
|---|---|
| Airport | Gral. Bernardo O´Higgins Airport (SCCH) |
| Time | Latitude | Longitude | Altitude | Speed | Heading |
|---|---|---|---|---|---|
| 2026-04-21 03:43 | -33.45639 | -70.54958 | 2162 ft | 0 kts | 105° |
| 2026-04-21 03:57 | -33.45641 | -70.54947 | 2167 ft | 5 kts | 100° |
| 2026-04-21 03:57 | -33.45622 | -70.54925 | 2165 ft | 5 kts | 14° |
| 2026-04-21 03:58 | -33.45604 | -70.54920 | 2165 ft | 0 kts | 13° |
| 2026-04-21 03:58 | -33.45561 | -70.54907 | 2165 ft | 12 kts | 15° |
| 2026-04-21 03:58 | -33.45531 | -70.54896 | 2165 ft | 2 kts | 41° |
| 2026-04-21 03:59 | -33.45538 | -70.54847 | 2165 ft | 10 kts | 105° |
| 2026-04-21 03:59 | -33.45563 | -70.54759 | 2165 ft | 5 kts | 85° |
| 2026-04-21 03:59 | -33.45459 | -70.54723 | 2165 ft | 20 kts | 13° |
| 2026-04-21 04:00 | -33.45209 | -70.54651 | 2164 ft | 18 kts | 13° |
| 2026-04-21 04:00 | -33.45127 | -70.54627 | 2164 ft | 3 kts | 55° |
| 2026-04-21 04:00 | -33.45126 | -70.54614 | 2164 ft | 6 kts | 89° |
| 2026-04-21 04:00 | -33.45126 | -70.54586 | 2164 ft | 0 kts | 96° |
| 2026-04-21 04:04 | -33.45128 | -70.54562 | 2154 ft | 7 kts | 96° |
| 2026-04-21 04:04 | -33.45155 | -70.54536 | 2154 ft | 0 kts | 193° |
| 2026-04-21 04:05 | -33.45257 | -70.54565 | 2153 ft | 43 kts | 193° |
| 2026-04-21 04:05 | -33.45745 | -70.54701 | 2158 ft | 99 kts | 193° |
| 2026-04-21 04:05 | -33.46493 | -70.54927 | 2448 ft | 118 kts | 194° |
| 2026-04-21 04:05 | -33.47314 | -70.55198 | 2910 ft | 124 kts | 195° |
| 2026-04-21 04:06 | -33.48133 | -70.55626 | 3316 ft | 137 kts | 220° |
| 2026-04-21 04:06 | -33.48517 | -70.56711 | 3620 ft | 156 kts | 267° |
| 2026-04-21 04:06 | -33.48290 | -70.58069 | 3821 ft | 177 kts | 295° |
| 2026-04-21 04:06 | -33.47765 | -70.59407 | 4389 ft | 176 kts | 294° |
| 2026-04-21 04:07 | -33.47330 | -70.60786 | 4939 ft | 178 kts | 290° |
| 2026-04-21 04:07 | -33.46913 | -70.62176 | 5494 ft | 176 kts | 292° |
| 2026-04-21 04:07 | -33.46498 | -70.63549 | 6077 ft | 173 kts | 293° |
| 2026-04-21 04:07 | -33.46089 | -70.64894 | 6651 ft | 170 kts | 295° |
| 2026-04-21 04:08 | -33.45685 | -70.66227 | 7143 ft | 170 kts | 295° |
| 2026-04-21 04:08 | -33.45239 | -70.67540 | 7606 ft | 169 kts | 306° |
| 2026-04-21 04:08 | -33.44348 | -70.68374 | 8070 ft | 165 kts | 339° |
| 2026-04-21 04:08 | -33.43229 | -70.68476 | 8524 ft | 168 kts | 10° |
| 2026-04-21 04:09 | -33.42216 | -70.67760 | 9016 ft | 177 kts | 43° |
| 2026-04-21 04:09 | -33.41699 | -70.66360 | 9490 ft | 190 kts | 73° |
| 2026-04-21 04:09 | -33.41950 | -70.64788 | 9930 ft | 209 kts | 118° |
| 2026-04-21 04:09 | -33.43119 | -70.63745 | 10357 ft | 217 kts | 166° |
| 2026-04-21 04:10 | -33.44576 | -70.63943 | 10797 ft | 210 kts | 207° |
| 2026-04-21 04:10 | -33.45893 | -70.64693 | 11239 ft | 209 kts | 212° |
| 2026-04-21 04:10 | -33.47199 | -70.65472 | 11701 ft | 209 kts | 212° |
| 2026-04-21 04:10 | -33.48507 | -70.66234 | 12178 ft | 209 kts | 212° |
| 2026-04-21 04:11 | -33.49812 | -70.66994 | 12654 ft | 208 kts | 212° |
| 2026-04-21 04:11 | -33.51115 | -70.67752 | 13128 ft | 208 kts | 212° |
| 2026-04-21 04:11 | -33.52417 | -70.68511 | 13606 ft | 208 kts | 212° |
| 2026-04-21 04:11 | -33.53718 | -70.69265 | 14056 ft | 207 kts | 212° |
| 2026-04-21 04:12 | -33.54998 | -70.70012 | 14455 ft | 207 kts | 212° |
| 2026-04-21 04:12 | -33.56295 | -70.70767 | 14853 ft | 207 kts | 212° |
| 2026-04-21 04:12 | -33.57592 | -70.71521 | 15261 ft | 207 kts | 213° |
| 2026-04-21 04:12 | -33.58889 | -70.72277 | 15660 ft | 207 kts | 213° |
| 2026-04-21 04:13 | -33.60188 | -70.73039 | 16016 ft | 207 kts | 213° |
| 2026-04-21 04:13 | -33.61485 | -70.73790 | 16402 ft | 207 kts | 213° |
| 2026-04-21 04:13 | -33.62778 | -70.74549 | 16796 ft | 207 kts | 213° |
| 2026-04-21 04:13 | -33.64073 | -70.75305 | 17180 ft | 207 kts | 213° |
| 2026-04-21 04:14 | -33.65368 | -70.76062 | 17564 ft | 207 kts | 213° |
| 2026-04-21 04:14 | -33.66663 | -70.76820 | 17945 ft | 207 kts | 213° |
| 2026-04-21 04:14 | -33.67943 | -70.77566 | 18314 ft | 207 kts | 213° |
| 2026-04-21 04:14 | -33.69241 | -70.78325 | 18655 ft | 207 kts | 214° |
| 2026-04-21 04:15 | -33.70543 | -70.79085 | 18942 ft | 209 kts | 213° |
| 2026-04-21 04:15 | -33.71849 | -70.79847 | 19278 ft | 208 kts | 213° |
| 2026-04-21 04:15 | -33.73145 | -70.80606 | 19640 ft | 206 kts | 213° |
| 2026-04-21 04:15 | -33.74440 | -70.81365 | 19946 ft | 207 kts | 213° |
| 2026-04-21 04:16 | -33.75735 | -70.82124 | 20245 ft | 207 kts | 213° |
| 2026-04-21 04:16 | -33.77035 | -70.82887 | 20549 ft | 208 kts | 213° |
| 2026-04-21 04:16 | -33.78337 | -70.83649 | 20840 ft | 208 kts | 213° |
| 2026-04-21 04:16 | -33.79640 | -70.84415 | 21133 ft | 209 kts | 212° |
| 2026-04-21 04:17 | -33.80946 | -70.85179 | 21457 ft | 208 kts | 212° |
| 2026-04-21 04:17 | -33.82226 | -70.85930 | 21767 ft | 207 kts | 212° |
| 2026-04-21 04:17 | -33.83516 | -70.86686 | 22080 ft | 206 kts | 212° |
| 2026-04-21 04:17 | -33.84803 | -70.87442 | 22354 ft | 206 kts | 212° |
| 2026-04-21 04:18 | -33.86089 | -70.88196 | 22664 ft | 205 kts | 211° |
| 2026-04-21 04:18 | -33.87369 | -70.88943 | 22957 ft | 205 kts | 210° |
| 2026-04-21 04:18 | -33.88749 | -70.89446 | 23213 ft | 211 kts | 197° |
| 2026-04-21 04:18 | -33.90234 | -70.89779 | 23219 ft | 222 kts | 197° |
| 2026-04-21 04:19 | -33.91781 | -70.90157 | 23220 ft | 232 kts | 197° |
| 2026-04-21 04:19 | -33.93398 | -70.90546 | 23221 ft | 241 kts | 197° |
| 2026-04-21 04:19 | -33.95061 | -70.90936 | 23222 ft | 247 kts | 196° |
| 2026-04-21 04:19 | -33.96768 | -70.91339 | 23223 ft | 252 kts | 196° |
| 2026-04-21 04:20 | -33.98501 | -70.91745 | 23227 ft | 256 kts | 196° |
| 2026-04-21 04:20 | -34.00273 | -70.92169 | 23225 ft | 262 kts | 196° |
| 2026-04-21 04:20 | -34.02072 | -70.92619 | 23218 ft | 265 kts | 198° |
| 2026-04-21 04:20 | -34.03876 | -70.93158 | 23223 ft | 268 kts | 199° |
| 2026-04-21 04:21 | -34.05693 | -70.93734 | 23221 ft | 272 kts | 199° |
| 2026-04-21 04:21 | -34.07545 | -70.94301 | 23217 ft | 275 kts | 198° |
| 2026-04-21 04:21 | -34.09413 | -70.94845 | 23223 ft | 277 kts | 198° |
| 2026-04-21 04:21 | -34.11290 | -70.95419 | 23220 ft | 280 kts | 199° |
| 2026-04-21 04:22 | -34.13181 | -70.96000 | 23222 ft | 282 kts | 198° |
| 2026-04-21 04:22 | -34.15091 | -70.96576 | 23224 ft | 283 kts | 198° |
| 2026-04-21 04:22 | -34.17007 | -70.97156 | 23227 ft | 284 kts | 198° |
| 2026-04-21 04:22 | -34.18927 | -70.97739 | 23223 ft | 285 kts | 198° |
| 2026-04-21 04:23 | -34.20833 | -70.98316 | 23224 ft | 286 kts | 198° |
| 2026-04-21 04:23 | -34.22769 | -70.98905 | 23222 ft | 287 kts | 198° |
| 2026-04-21 04:23 | -34.24703 | -70.99492 | 23248 ft | 287 kts | 198° |
| 2026-04-21 04:23 | -34.26641 | -71.00082 | 23230 ft | 287 kts | 198° |
| 2026-04-21 04:24 | -34.28580 | -71.00671 | 23230 ft | 287 kts | 198° |
| 2026-04-21 04:24 | -34.30519 | -71.01259 | 23227 ft | 287 kts | 198° |
| 2026-04-21 04:24 | -34.32457 | -71.01849 | 23234 ft | 287 kts | 198° |
| 2026-04-21 04:24 | -34.34398 | -71.02444 | 23238 ft | 287 kts | 198° |
| 2026-04-21 04:25 | -34.36344 | -71.03032 | 23235 ft | 288 kts | 198° |
| 2026-04-21 04:25 | -34.38282 | -71.03621 | 23233 ft | 287 kts | 198° |
| 2026-04-21 04:25 | -34.40219 | -71.04214 | 23234 ft | 287 kts | 198° |
| 2026-04-21 04:25 | -34.42155 | -71.04804 | 23236 ft | 287 kts | 198° |
| 2026-04-21 04:26 | -34.44097 | -71.05399 | 23238 ft | 287 kts | 198° |
| 2026-04-21 04:26 | -34.46011 | -71.05984 | 23239 ft | 287 kts | 198° |
| 2026-04-21 04:26 | -34.47948 | -71.06575 | 23238 ft | 287 kts | 198° |
| 2026-04-21 04:26 | -34.49887 | -71.07165 | 23240 ft | 287 kts | 198° |
| 2026-04-21 04:27 | -34.51827 | -71.07759 | 23236 ft | 288 kts | 198° |
| 2026-04-21 04:27 | -34.53769 | -71.08352 | 23238 ft | 286 kts | 198° |
| 2026-04-21 04:27 | -34.55694 | -71.08948 | 23239 ft | 285 kts | 198° |
| 2026-04-21 04:27 | -34.57619 | -71.09533 | 23242 ft | 285 kts | 198° |
| 2026-04-21 04:28 | -34.59550 | -71.10118 | 23240 ft | 285 kts | 198° |
| 2026-04-21 04:28 | -34.61478 | -71.10714 | 23240 ft | 285 kts | 198° |
| 2026-04-21 04:28 | -34.63402 | -71.11306 | 23239 ft | 285 kts | 198° |
| 2026-04-21 04:28 | -34.65326 | -71.11896 | 23237 ft | 285 kts | 198° |
| 2026-04-21 04:29 | -34.67249 | -71.12485 | 23237 ft | 285 kts | 198° |
| 2026-04-21 04:29 | -34.69165 | -71.13078 | 23236 ft | 284 kts | 198° |
| 2026-04-21 04:29 | -34.71085 | -71.13662 | 23234 ft | 284 kts | 198° |
| 2026-04-21 04:29 | -34.73001 | -71.14250 | 23232 ft | 284 kts | 198° |
| 2026-04-21 04:30 | -34.74915 | -71.14843 | 23229 ft | 285 kts | 198° |
| 2026-04-21 04:30 | -34.76811 | -71.15426 | 23243 ft | 285 kts | 198° |
| 2026-04-21 04:30 | -34.78735 | -71.16015 | 23229 ft | 285 kts | 198° |
| 2026-04-21 04:30 | -34.80655 | -71.16606 | 23227 ft | 284 kts | 198° |
| 2026-04-21 04:31 | -34.82568 | -71.17196 | 23225 ft | 283 kts | 198° |
| 2026-04-21 04:31 | -34.84477 | -71.17784 | 23221 ft | 283 kts | 198° |
| 2026-04-21 04:31 | -34.86383 | -71.18372 | 23219 ft | 282 kts | 198° |
| 2026-04-21 04:31 | -34.88286 | -71.18961 | 23216 ft | 282 kts | 198° |
| 2026-04-21 04:32 | -34.90191 | -71.19549 | 23216 ft | 282 kts | 198° |
| 2026-04-21 04:32 | -34.92089 | -71.20136 | 23216 ft | 281 kts | 198° |
| 2026-04-21 04:32 | -34.93987 | -71.20721 | 23216 ft | 281 kts | 198° |
| 2026-04-21 04:32 | -34.95862 | -71.21300 | 23216 ft | 281 kts | 198° |
| 2026-04-21 04:33 | -34.97704 | -71.22033 | 23212 ft | 277 kts | 206° |
| 2026-04-21 04:33 | -34.99482 | -71.22947 | 23213 ft | 277 kts | 205° |
| 2026-04-21 04:33 | -35.01280 | -71.23824 | 23212 ft | 277 kts | 205° |
| 2026-04-21 04:33 | -35.03070 | -71.24702 | 23213 ft | 277 kts | 205° |
| 2026-04-21 04:34 | -35.04856 | -71.25595 | 23248 ft | 277 kts | 205° |
| 2026-04-21 04:34 | -35.06644 | -71.26488 | 23248 ft | 277 kts | 205° |
| 2026-04-21 04:34 | -35.08429 | -71.27377 | 23248 ft | 277 kts | 205° |
| 2026-04-21 04:34 | -35.10214 | -71.28266 | 23248 ft | 277 kts | 205° |
| 2026-04-21 04:35 | -35.12003 | -71.29157 | 23251 ft | 277 kts | 205° |
| 2026-04-21 04:35 | -35.13786 | -71.30046 | 23251 ft | 277 kts | 205° |
| 2026-04-21 04:35 | -35.15570 | -71.30937 | 23250 ft | 277 kts | 205° |
| 2026-04-21 04:35 | -35.17356 | -71.31825 | 23251 ft | 277 kts | 205° |
| 2026-04-21 04:36 | -35.19141 | -71.32717 | 23254 ft | 277 kts | 205° |
| 2026-04-21 04:36 | -35.20927 | -71.33608 | 23254 ft | 277 kts | 205° |
| 2026-04-21 04:36 | -35.22712 | -71.34500 | 23254 ft | 277 kts | 205° |
| 2026-04-21 04:36 | -35.24498 | -71.35393 | 23254 ft | 277 kts | 205° |
| 2026-04-21 04:37 | -35.26283 | -71.36286 | 23254 ft | 277 kts | 205° |
| 2026-04-21 04:37 | -35.28067 | -71.37178 | 23254 ft | 277 kts | 205° |
| 2026-04-21 04:37 | -35.29833 | -71.38064 | 23258 ft | 277 kts | 204° |
| 2026-04-21 04:37 | -35.31618 | -71.38957 | 23258 ft | 277 kts | 205° |
| 2026-04-21 04:38 | -35.33398 | -71.39851 | 23261 ft | 276 kts | 205° |
| 2026-04-21 04:38 | -35.35178 | -71.40742 | 23261 ft | 276 kts | 205° |
| 2026-04-21 04:38 | -35.36954 | -71.41634 | 23261 ft | 276 kts | 205° |
| 2026-04-21 04:38 | -35.38730 | -71.42525 | 23263 ft | 276 kts | 205° |
| 2026-04-21 04:39 | -35.40504 | -71.43414 | 23263 ft | 275 kts | 204° |
| 2026-04-21 04:39 | -35.42280 | -71.44306 | 23264 ft | 275 kts | 205° |
| 2026-04-21 04:39 | -35.44047 | -71.45195 | 23262 ft | 275 kts | 205° |
| 2026-04-21 04:39 | -35.45824 | -71.46089 | 23247 ft | 275 kts | 205° |
| 2026-04-21 04:40 | -35.47614 | -71.46992 | 22962 ft | 281 kts | 205° |
| 2026-04-21 04:40 | -35.49430 | -71.47907 | 22597 ft | 282 kts | 205° |
| 2026-04-21 04:40 | -35.51244 | -71.48820 | 22225 ft | 281 kts | 205° |
| 2026-04-21 04:40 | -35.53028 | -71.49720 | 21859 ft | 281 kts | 205° |
| 2026-04-21 04:41 | -35.54836 | -71.50634 | 21506 ft | 281 kts | 205° |
| 2026-04-21 04:41 | -35.56639 | -71.51542 | 21120 ft | 280 kts | 205° |
| 2026-04-21 04:41 | -35.58442 | -71.52453 | 20749 ft | 281 kts | 205° |
| 2026-04-21 04:41 | -35.60258 | -71.53373 | 20379 ft | 283 kts | 205° |
| 2026-04-21 04:42 | -35.62090 | -71.54297 | 20001 ft | 285 kts | 205° |
| 2026-04-21 04:42 | -35.63926 | -71.55226 | 19626 ft | 287 kts | 205° |
| 2026-04-21 04:42 | -35.65776 | -71.56162 | 19234 ft | 288 kts | 205° |
| 2026-04-21 04:42 | -35.67633 | -71.57101 | 18864 ft | 289 kts | 205° |
| 2026-04-21 04:43 | -35.69500 | -71.58045 | 18473 ft | 290 kts | 205° |
| 2026-04-21 04:43 | -35.71363 | -71.58991 | 18068 ft | 290 kts | 205° |
| 2026-04-21 04:43 | -35.73233 | -71.59938 | 17682 ft | 292 kts | 205° |
| 2026-04-21 04:43 | -35.75118 | -71.60896 | 17296 ft | 294 kts | 205° |
| 2026-04-21 04:44 | -35.77013 | -71.61858 | 16908 ft | 294 kts | 204° |
| 2026-04-21 04:44 | -35.78898 | -71.62814 | 16524 ft | 292 kts | 204° |
| 2026-04-21 04:44 | -35.80749 | -71.63756 | 16153 ft | 291 kts | 204° |
| 2026-04-21 04:44 | -35.82647 | -71.64720 | 15753 ft | 291 kts | 204° |
| 2026-04-21 04:45 | -35.84491 | -71.65657 | 15374 ft | 290 kts | 204° |
| 2026-04-21 04:45 | -35.86357 | -71.66608 | 14993 ft | 290 kts | 204° |
| 2026-04-21 04:45 | -35.88220 | -71.67554 | 14612 ft | 289 kts | 203° |
| 2026-04-21 04:45 | -35.90078 | -71.68501 | 14234 ft | 289 kts | 203° |
| 2026-04-21 04:46 | -35.91933 | -71.69447 | 13832 ft | 288 kts | 203° |
| 2026-04-21 04:46 | -35.93783 | -71.70388 | 13447 ft | 287 kts | 203° |
| 2026-04-21 04:46 | -35.95623 | -71.71328 | 13069 ft | 286 kts | 203° |
| 2026-04-21 04:46 | -35.97463 | -71.72269 | 12692 ft | 285 kts | 203° |
| 2026-04-21 04:47 | -35.99305 | -71.73208 | 12316 ft | 286 kts | 203° |
| 2026-04-21 04:47 | -36.01144 | -71.74149 | 11946 ft | 287 kts | 203° |
| 2026-04-21 04:47 | -36.02995 | -71.75095 | 11565 ft | 288 kts | 203° |
| 2026-04-21 04:47 | -36.04218 | -71.75719 | 11315 ft | 287 kts | 203° |
| 2026-04-21 04:48 | -36.06683 | -71.76983 | 10813 ft | 285 kts | 202° |
| 2026-04-21 04:48 | -36.07888 | -71.77599 | 10500 ft | 282 kts | 202° |
| 2026-04-21 04:48 | -36.09714 | -71.78533 | 9960 ft | 281 kts | 201° |
| 2026-04-21 04:48 | -36.11517 | -71.79455 | 9559 ft | 282 kts | 201° |
| 2026-04-21 04:49 | -36.13929 | -71.80691 | 9063 ft | 284 kts | 202° |
| 2026-04-21 04:49 | -36.15162 | -71.81324 | 8810 ft | 284 kts | 202° |
| 2026-04-21 04:49 | -36.16983 | -71.82258 | 8437 ft | 282 kts | 202° |
| 2026-04-21 04:49 | -36.18791 | -71.83187 | 8065 ft | 282 kts | 202° |
| 2026-04-21 04:50 | -36.20600 | -71.84118 | 7695 ft | 281 kts | 202° |
| 2026-04-21 04:50 | -36.22408 | -71.85046 | 7328 ft | 281 kts | 202° |
| 2026-04-21 04:50 | -36.24218 | -71.85978 | 6951 ft | 282 kts | 202° |
| 2026-04-21 04:50 | -36.26005 | -71.86896 | 6584 ft | 274 kts | 202° |
| 2026-04-21 04:51 | -36.27806 | -71.87495 | 6211 ft | 264 kts | 186° |
| 2026-04-21 04:51 | -36.29589 | -71.87487 | 5872 ft | 257 kts | 174° |
| 2026-04-21 04:51 | -36.31294 | -71.87312 | 5490 ft | 251 kts | 175° |
| 2026-04-21 04:51 | -36.33031 | -71.87159 | 5176 ft | 249 kts | 175° |
| 2026-04-21 04:52 | -36.34760 | -71.87006 | 4872 ft | 246 kts | 175° |
| 2026-04-21 04:52 | -36.36430 | -71.86854 | 4553 ft | 235 kts | 174° |
| 2026-04-21 04:52 | -36.38020 | -71.86706 | 4249 ft | 224 kts | 174° |
| 2026-04-21 04:52 | -36.39552 | -71.86567 | 3957 ft | 218 kts | 174° |
| 2026-04-21 04:53 | -36.41053 | -71.86430 | 3676 ft | 216 kts | 175° |
| 2026-04-21 04:53 | -36.42553 | -71.86291 | 3386 ft | 215 kts | 175° |
| 2026-04-21 04:53 | -36.44037 | -71.86155 | 3102 ft | 213 kts | 175° |
| 2026-04-21 04:53 | -36.45484 | -71.86146 | 3036 ft | 209 kts | 191° |
| 2026-04-21 04:54 | -36.46665 | -71.87184 | 3037 ft | 215 kts | 234° |
| 2026-04-21 04:54 | -36.47288 | -71.88829 | 3043 ft | 203 kts | 245° |
| 2026-04-21 04:54 | -36.47917 | -71.90290 | 3035 ft | 181 kts | 232° |
| 2026-04-21 04:54 | -36.48701 | -71.91356 | 3028 ft | 154 kts | 223° |
| 2026-04-21 04:55 | -36.49462 | -71.92273 | 2856 ft | 151 kts | 223° |
| 2026-04-21 04:55 | -36.50190 | -71.93169 | 2656 ft | 144 kts | 223° |
| 2026-04-21 04:55 | -36.50894 | -71.94036 | 2463 ft | 141 kts | 223° |
| 2026-04-21 04:55 | -36.51580 | -71.94885 | 2275 ft | 137 kts | 223° |
| 2026-04-21 04:56 | -36.52246 | -71.95706 | 2094 ft | 136 kts | 222° |
| 2026-04-21 04:56 | -36.52917 | -71.96536 | 1907 ft | 136 kts | 222° |
| 2026-04-21 04:56 | -36.53588 | -71.97366 | 1720 ft | 134 kts | 223° |
| 2026-04-21 04:56 | -36.54199 | -71.98124 | 1537 ft | 124 kts | 223° |
| 2026-04-21 04:57 | -36.54793 | -71.98857 | 1362 ft | 117 kts | 223° |
| 2026-04-21 04:57 | -36.55343 | -71.99539 | 1205 ft | 105 kts | 223° |
| 2026-04-21 04:57 | -36.55869 | -72.00189 | 1055 ft | 109 kts | 223° |
| 2026-04-21 04:57 | -36.56416 | -72.00863 | 904 ft | 112 kts | 224° |
| 2026-04-21 04:58 | -36.56971 | -72.01552 | 746 ft | 113 kts | 223° |
| 2026-04-21 04:58 | -36.57523 | -72.02249 | 595 ft | 112 kts | 224° |
| 2026-04-21 04:58 | -36.58005 | -72.02845 | 508 ft | 84 kts | 223° |
| 2026-04-21 04:58 | -36.58305 | -72.03211 | 511 ft | 42 kts | 224° |
| 2026-04-21 04:59 | -36.58442 | -72.03378 | 515 ft | 23 kts | 225° |
| 2026-04-21 04:59 | -36.58541 | -72.03500 | 513 ft | 18 kts | 225° |
| 2026-04-21 04:59 | -36.58618 | -72.03596 | 513 ft | 13 kts | 224° |
| 2026-04-21 04:59 | -36.58673 | -72.03668 | 512 ft | 10 kts | 224° |
| 2026-04-21 05:00 | -36.58728 | -72.03732 | 511 ft | 13 kts | 224° |
| 2026-04-21 05:00 | -36.58742 | -72.03750 | 505 ft | 0 kts | 225° |
| 2026-04-21 05:00 | -36.58775 | -72.03789 | 506 ft | 11 kts | 224° |
| 2026-04-21 05:01 | -36.58734 | -72.03875 | 508 ft | 15 kts | 329° |
| 2026-04-21 05:01 | -36.58668 | -72.03908 | 508 ft | 8 kts | 29° |
| 2026-04-21 05:01 | -36.58656 | -72.03904 | 505 ft | 1 kts | 231° |
| 2026-04-21 05:01 | -36.58656 | -72.03905 | 505 ft | 0 kts | 215° |